sensor_id;sensor_type;location;lat;lon;timestamp;P1;durP1;ratioP1;P2;durP2;ratioP2
47659;SDS011;33403;43.608;1.458;2022-08-03T00:00:43;2.15;;;1.90;;
47659;SDS011;33403;43.608;1.458;2022-08-03T00:03:09;3.75;;;1.80;;
47659;SDS011;33403;43.608;1.458;2022-08-03T00:05:36;2.65;;;1.60;;
47659;SDS011;33403;43.608;1.458;2022-08-03T00:08:02;3.17;;;1.60;;
47659;SDS011;33403;43.608;1.458;2022-08-03T00:10:28;2.15;;;1.50;;
47659;SDS011;33403;43.608;1.458;2022-08-03T00:12:54;2.38;;;1.30;;
47659;SDS011;33403;43.608;1.458;2022-08-03T00:15:20;1.73;;;1.58;;
47659;SDS011;33403;43.608;1.458;2022-08-03T00:17:46;2.67;;;1.67;;
47659;SDS011;33403;43.608;1.458;2022-08-03T00:26:19;4.47;;;1.60;;
47659;SDS011;33403;43.608;1.458;2022-08-03T00:28:45;3.10;;;1.50;;
47659;SDS011;33403;43.608;1.458;2022-08-03T00:31:11;2.38;;;1.80;;
47659;SDS011;33403;43.608;1.458;2022-08-03T00:33:38;2.75;;;1.67;;
47659;SDS011;33403;43.608;1.458;2022-08-03T00:36:04;2.30;;;1.67;;
47659;SDS011;33403;43.608;1.458;2022-08-03T00:38:30;2.47;;;1.80;;
47659;SDS011;33403;43.608;1.458;2022-08-03T00:40:56;1.45;;;1.30;;
47659;SDS011;33403;43.608;1.458;2022-08-03T00:43:24;2.85;;;1.52;;
47659;SDS011;33403;43.608;1.458;2022-08-03T00:45:53;2.67;;;1.70;;
47659;SDS011;33403;43.608;1.458;2022-08-03T00:48:19;2.53;;;1.60;;
47659;SDS011;33403;43.608;1.458;2022-08-03T00:50:45;2.55;;;1.55;;
47659;SDS011;33403;43.608;1.458;2022-08-03T00:53:12;2.30;;;1.50;;
47659;SDS011;33403;43.608;1.458;2022-08-03T00:55:41;1.88;;;1.50;;
47659;SDS011;33403;43.608;1.458;2022-08-03T00:58:08;2.78;;;1.42;;
47659;SDS011;33403;43.608;1.458;2022-08-03T01:00:36;2.10;;;1.58;;
47659;SDS011;33403;43.608;1.458;2022-08-03T01:03:05;2.08;;;1.60;;
47659;SDS011;33403;43.608;1.458;2022-08-03T01:06:18;2.35;;;1.50;;
47659;SDS011;33403;43.608;1.458;2022-08-03T01:17:04;2.63;;;1.58;;
47659;SDS011;33403;43.608;1.458;2022-08-03T01:24:43;4.22;;;1.63;;
47659;SDS011;33403;43.608;1.458;2022-08-03T01:27:18;2.17;;;1.40;;
47659;SDS011;33403;43.608;1.458;2022-08-03T01:35:00;1.55;;;1.45;;
47659;SDS011;33403;43.608;1.458;2022-08-03T01:37:30;2.97;;;1.60;;
47659;SDS011;33403;43.608;1.458;2022-08-03T01:39:57;1.85;;;1.60;;
47659;SDS011;33403;43.608;1.458;2022-08-03T01:42:27;2.45;;;1.60;;
47659;SDS011;33403;43.608;1.458;2022-08-03T01:44:54;1.80;;;1.48;;
47659;SDS011;33403;43.608;1.458;2022-08-03T01:47:22;3.28;;;1.70;;
47659;SDS011;33403;43.608;1.458;2022-08-03T01:49:49;1.60;;;1.50;;
47659;SDS011;33403;43.608;1.458;2022-08-03T01:52:17;2.72;;;1.80;;
47659;SDS011;33403;43.608;1.458;2022-08-03T01:54:44;2.53;;;1.60;;
47659;SDS011;33403;43.608;1.458;2022-08-03T01:57:11;2.67;;;1.85;;
47659;SDS011;33403;43.608;1.458;2022-08-03T01:59:37;3.55;;;1.60;;
47659;SDS011;33403;43.608;1.458;2022-08-03T02:02:04;1.90;;;1.70;;
47659;SDS011;33403;43.608;1.458;2022-08-03T02:04:32;2.85;;;1.83;;
47659;SDS011;33403;43.608;1.458;2022-08-03T02:06:59;2.40;;;1.67;;
47659;SDS011;33403;43.608;1.458;2022-08-03T02:09:26;2.13;;;1.67;;
47659;SDS011;33403;43.608;1.458;2022-08-03T02:11:54;1.85;;;1.65;;
47659;SDS011;33403;43.608;1.458;2022-08-03T02:14:21;2.60;;;1.90;;
47659;SDS011;33403;43.608;1.458;2022-08-03T02:16:48;2.60;;;1.90;;
47659;SDS011;33403;43.608;1.458;2022-08-03T02:19:15;2.95;;;1.80;;
47659;SDS011;33403;43.608;1.458;2022-08-03T02:21:42;3.22;;;2.10;;
47659;SDS011;33403;43.608;1.458;2022-08-03T02:24:08;4.43;;;1.92;;
47659;SDS011;33403;43.608;1.458;2022-08-03T02:26:35;4.90;;;2.10;;
47659;SDS011;33403;43.608;1.458;2022-08-03T02:29:04;3.00;;;2.15;;
47659;SDS011;33403;43.608;1.458;2022-08-03T02:31:32;2.55;;;1.90;;
47659;SDS011;33403;43.608;1.458;2022-08-03T02:34:02;3.05;;;2.10;;
47659;SDS011;33403;43.608;1.458;2022-08-03T02:36:29;3.97;;;2.10;;
47659;SDS011;33403;43.608;1.458;2022-08-03T02:38:57;3.60;;;1.98;;
47659;SDS011;33403;43.608;1.458;2022-08-03T02:41:26;2.63;;;1.80;;
47659;SDS011;33403;43.608;1.458;2022-08-03T02:43:53;2.72;;;1.70;;
47659;SDS011;33403;43.608;1.458;2022-08-03T02:46:21;2.20;;;1.65;;
47659;SDS011;33403;43.608;1.458;2022-08-03T02:48:49;4.03;;;1.75;;
47659;SDS011;33403;43.608;1.458;2022-08-03T02:51:17;2.30;;;1.70;;
47659;SDS011;33403;43.608;1.458;2022-08-03T02:53:44;3.38;;;1.80;;
47659;SDS011;33403;43.608;1.458;2022-08-03T02:56:11;2.40;;;1.92;;
47659;SDS011;33403;43.608;1.458;2022-08-03T02:58:39;2.55;;;2.00;;
47659;SDS011;33403;43.608;1.458;2022-08-03T03:01:07;2.35;;;1.65;;
47659;SDS011;33403;43.608;1.458;2022-08-03T03:03:33;2.00;;;1.60;;
47659;SDS011;33403;43.608;1.458;2022-08-03T03:06:01;2.90;;;1.90;;
47659;SDS011;33403;43.608;1.458;2022-08-03T03:08:27;3.03;;;1.80;;
47659;SDS011;33403;43.608;1.458;2022-08-03T03:10:53;3.85;;;1.88;;
47659;SDS011;33403;43.608;1.458;2022-08-03T03:13:20;2.22;;;1.80;;
47659;SDS011;33403;43.608;1.458;2022-08-03T03:15:46;2.20;;;1.80;;
47659;SDS011;33403;43.608;1.458;2022-08-03T03:18:13;2.08;;;1.52;;
47659;SDS011;33403;43.608;1.458;2022-08-03T03:20:39;1.55;;;1.40;;
47659;SDS011;33403;43.608;1.458;2022-08-03T03:23:06;1.60;;;1.48;;
47659;SDS011;33403;43.608;1.458;2022-08-03T03:25:33;1.95;;;1.40;;
47659;SDS011;33403;43.608;1.458;2022-08-03T03:28:00;1.95;;;1.52;;
47659;SDS011;33403;43.608;1.458;2022-08-03T03:30:26;2.22;;;1.45;;
47659;SDS011;33403;43.608;1.458;2022-08-03T03:32:54;1.70;;;1.30;;
47659;SDS011;33403;43.608;1.458;2022-08-03T03:35:20;2.55;;;1.60;;
47659;SDS011;33403;43.608;1.458;2022-08-03T03:37:46;2.97;;;1.60;;
47659;SDS011;33403;43.608;1.458;2022-08-03T03:40:12;2.42;;;1.60;;
47659;SDS011;33403;43.608;1.458;2022-08-03T03:42:39;2.85;;;1.60;;
47659;SDS011;33403;43.608;1.458;2022-08-03T03:45:06;2.10;;;1.73;;
47659;SDS011;33403;43.608;1.458;2022-08-03T03:47:35;3.83;;;1.60;;
47659;SDS011;33403;43.608;1.458;2022-08-03T03:50:02;1.75;;;1.30;;
47659;SDS011;33403;43.608;1.458;2022-08-03T03:52:28;1.73;;;1.50;;
47659;SDS011;33403;43.608;1.458;2022-08-03T03:54:54;1.80;;;1.50;;
47659;SDS011;33403;43.608;1.458;2022-08-03T03:57:20;1.58;;;1.48;;
47659;SDS011;33403;43.608;1.458;2022-08-03T03:59:46;3.05;;;1.50;;
47659;SDS011;33403;43.608;1.458;2022-08-03T04:02:13;2.20;;;1.60;;
47659;SDS011;33403;43.608;1.458;2022-08-03T04:04:39;2.95;;;1.60;;
47659;SDS011;33403;43.608;1.458;2022-08-03T04:07:24;2.42;;;1.80;;
47659;SDS011;33403;43.608;1.458;2022-08-03T04:10:10;4.15;;;1.90;;
47659;SDS011;33403;43.608;1.458;2022-08-03T04:12:56;3.90;;;1.77;;
47659;SDS011;33403;43.608;1.458;2022-08-03T04:15:23;5.13;;;1.73;;
47659;SDS011;33403;43.608;1.458;2022-08-03T04:17:50;1.98;;;1.70;;
47659;SDS011;33403;43.608;1.458;2022-08-03T04:20:18;1.98;;;1.63;;
47659;SDS011;33403;43.608;1.458;2022-08-03T04:22:45;3.13;;;2.00;;
47659;SDS011;33403;43.608;1.458;2022-08-03T04:25:13;2.78;;;1.95;;
47659;SDS011;33403;43.608;1.458;2022-08-03T04:27:42;2.15;;;1.73;;
47659;SDS011;33403;43.608;1.458;2022-08-03T04:30:08;3.95;;;1.70;;
47659;SDS011;33403;43.608;1.458;2022-08-03T04:32:35;2.97;;;1.85;;
47659;SDS011;33403;43.608;1.458;2022-08-03T04:35:02;2.35;;;1.65;;
47659;SDS011;33403;43.608;1.458;2022-08-03T04:37:34;3.20;;;1.90;;
47659;SDS011;33403;43.608;1.458;2022-08-03T04:40:02;2.47;;;1.63;;
47659;SDS011;33403;43.608;1.458;2022-08-03T04:42:30;2.50;;;1.80;;
47659;SDS011;33403;43.608;1.458;2022-08-03T04:44:56;2.72;;;1.70;;
47659;SDS011;33403;43.608;1.458;2022-08-03T04:47:22;2.30;;;1.88;;
47659;SDS011;33403;43.608;1.458;2022-08-03T04:49:48;2.42;;;1.95;;
47659;SDS011;33403;43.608;1.458;2022-08-03T04:52:15;3.85;;;1.90;;
47659;SDS011;33403;43.608;1.458;2022-08-03T04:54:41;3.33;;;1.90;;
47659;SDS011;33403;43.608;1.458;2022-08-03T04:57:08;4.28;;;2.20;;
47659;SDS011;33403;43.608;1.458;2022-08-03T04:59:35;4.80;;;2.08;;
47659;SDS011;33403;43.608;1.458;2022-08-03T05:02:01;4.78;;;2.28;;
47659;SDS011;33403;43.608;1.458;2022-08-03T05:04:27;3.05;;;1.90;;
47659;SDS011;33403;43.608;1.458;2022-08-03T05:06:53;3.05;;;1.90;;
47659;SDS011;33403;43.608;1.458;2022-08-03T05:09:19;4.97;;;1.90;;
47659;SDS011;33403;43.608;1.458;2022-08-03T05:11:45;5.35;;;2.10;;
47659;SDS011;33403;43.608;1.458;2022-08-03T05:14:11;2.92;;;1.92;;
47659;SDS011;33403;43.608;1.458;2022-08-03T05:16:37;3.67;;;2.05;;
47659;SDS011;33403;43.608;1.458;2022-08-03T05:19:03;2.88;;;1.88;;
47659;SDS011;33403;43.608;1.458;2022-08-03T05:21:29;2.65;;;1.90;;
47659;SDS011;33403;43.608;1.458;2022-08-03T05:23:55;3.10;;;2.00;;
47659;SDS011;33403;43.608;1.458;2022-08-03T05:26:21;4.15;;;2.17;;
47659;SDS011;33403;43.608;1.458;2022-08-03T05:28:47;2.15;;;1.83;;
47659;SDS011;33403;43.608;1.458;2022-08-03T05:31:13;3.95;;;2.00;;
47659;SDS011;33403;43.608;1.458;2022-08-03T05:33:39;3.95;;;1.90;;
47659;SDS011;33403;43.608;1.458;2022-08-03T05:36:05;3.58;;;1.90;;
47659;SDS011;33403;43.608;1.458;2022-08-03T05:38:31;5.68;;;2.20;;
47659;SDS011;33403;43.608;1.458;2022-08-03T05:40:57;3.75;;;2.03;;
47659;SDS011;33403;43.608;1.458;2022-08-03T05:43:23;2.50;;;1.80;;
47659;SDS011;33403;43.608;1.458;2022-08-03T05:45:49;2.95;;;2.00;;
47659;SDS011;33403;43.608;1.458;2022-08-03T05:48:15;2.80;;;1.80;;
47659;SDS011;33403;43.608;1.458;2022-08-03T05:50:41;2.97;;;2.00;;
47659;SDS011;33403;43.608;1.458;2022-08-03T05:53:07;2.40;;;1.90;;
47659;SDS011;33403;43.608;1.458;2022-08-03T05:55:33;6.40;;;2.10;;
47659;SDS011;33403;43.608;1.458;2022-08-03T05:58:00;3.95;;;2.17;;
47659;SDS011;33403;43.608;1.458;2022-08-03T06:00:27;4.90;;;2.17;;
47659;SDS011;33403;43.608;1.458;2022-08-03T06:02:54;2.95;;;2.30;;
47659;SDS011;33403;43.608;1.458;2022-08-03T06:05:21;5.78;;;2.22;;
47659;SDS011;33403;43.608;1.458;2022-08-03T06:07:47;8.07;;;2.25;;
47659;SDS011;33403;43.608;1.458;2022-08-03T06:10:13;3.97;;;2.30;;
47659;SDS011;33403;43.608;1.458;2022-08-03T06:12:39;3.33;;;2.00;;
47659;SDS011;33403;43.608;1.458;2022-08-03T06:15:05;3.28;;;1.80;;
47659;SDS011;33403;43.608;1.458;2022-08-03T06:17:31;3.25;;;2.03;;
47659;SDS011;33403;43.608;1.458;2022-08-03T06:19:57;2.65;;;2.15;;
47659;SDS011;33403;43.608;1.458;2022-08-03T06:22:23;2.88;;;2.00;;
47659;SDS011;33403;43.608;1.458;2022-08-03T06:24:49;4.00;;;1.92;;
47659;SDS011;33403;43.608;1.458;2022-08-03T06:27:15;4.07;;;2.00;;
47659;SDS011;33403;43.608;1.458;2022-08-03T06:29:41;5.07;;;1.95;;
47659;SDS011;33403;43.608;1.458;2022-08-03T06:32:07;5.97;;;2.20;;
47659;SDS011;33403;43.608;1.458;2022-08-03T06:34:33;4.07;;;2.28;;
47659;SDS011;33403;43.608;1.458;2022-08-03T06:36:59;3.35;;;2.03;;
47659;SDS011;33403;43.608;1.458;2022-08-03T06:39:25;3.00;;;1.90;;
47659;SDS011;33403;43.608;1.458;2022-08-03T06:41:52;2.78;;;2.00;;
47659;SDS011;33403;43.608;1.458;2022-08-03T06:44:18;4.20;;;2.00;;
47659;SDS011;33403;43.608;1.458;2022-08-03T06:46:44;3.90;;;2.22;;
47659;SDS011;33403;43.608;1.458;2022-08-03T06:49:11;2.47;;;2.17;;
47659;SDS011;33403;43.608;1.458;2022-08-03T06:51:37;4.28;;;2.22;;
47659;SDS011;33403;43.608;1.458;2022-08-03T06:54:03;2.65;;;2.20;;
47659;SDS011;33403;43.608;1.458;2022-08-03T06:56:29;2.40;;;2.20;;
47659;SDS011;33403;43.608;1.458;2022-08-03T06:58:55;2.60;;;1.85;;
47659;SDS011;33403;43.608;1.458;2022-08-03T07:01:21;5.20;;;2.50;;
47659;SDS011;33403;43.608;1.458;2022-08-03T07:03:47;2.33;;;1.95;;
47659;SDS011;33403;43.608;1.458;2022-08-03T07:06:14;3.70;;;2.50;;
47659;SDS011;33403;43.608;1.458;2022-08-03T07:08:40;4.10;;;2.58;;
47659;SDS011;33403;43.608;1.458;2022-08-03T07:11:06;2.95;;;2.40;;
47659;SDS011;33403;43.608;1.458;2022-08-03T07:13:32;2.40;;;2.20;;
47659;SDS011;33403;43.608;1.458;2022-08-03T07:15:58;2.97;;;2.13;;
47659;SDS011;33403;43.608;1.458;2022-08-03T07:18:24;2.80;;;1.90;;
47659;SDS011;33403;43.608;1.458;2022-08-03T07:20:50;3.50;;;2.22;;
47659;SDS011;33403;43.608;1.458;2022-08-03T07:23:16;4.20;;;2.30;;
47659;SDS011;33403;43.608;1.458;2022-08-03T07:25:42;4.22;;;2.28;;
47659;SDS011;33403;43.608;1.458;2022-08-03T07:28:08;2.83;;;2.13;;
47659;SDS011;33403;43.608;1.458;2022-08-03T07:30:34;3.65;;;2.30;;
47659;SDS011;33403;43.608;1.458;2022-08-03T07:33:00;2.63;;;2.28;;
47659;SDS011;33403;43.608;1.458;2022-08-03T07:35:26;3.97;;;2.30;;
47659;SDS011;33403;43.608;1.458;2022-08-03T07:37:52;5.20;;;2.50;;
47659;SDS011;33403;43.608;1.458;2022-08-03T07:40:18;3.05;;;2.40;;
47659;SDS011;33403;43.608;1.458;2022-08-03T07:42:44;3.92;;;2.70;;
47659;SDS011;33403;43.608;1.458;2022-08-03T07:45:10;4.10;;;2.70;;
47659;SDS011;33403;43.608;1.458;2022-08-03T07:47:36;3.65;;;2.50;;
47659;SDS011;33403;43.608;1.458;2022-08-03T07:50:03;5.25;;;2.80;;
47659;SDS011;33403;43.608;1.458;2022-08-03T07:52:29;3.05;;;2.70;;
47659;SDS011;33403;43.608;1.458;2022-08-03T07:55:15;4.00;;;2.72;;
47659;SDS011;33403;43.608;1.458;2022-08-03T07:57:41;2.88;;;2.63;;
47659;SDS011;33403;43.608;1.458;2022-08-03T08:00:12;5.35;;;2.80;;
47659;SDS011;33403;43.608;1.458;2022-08-03T08:02:38;3.50;;;2.88;;
47659;SDS011;33403;43.608;1.458;2022-08-03T08:05:05;4.43;;;2.85;;
47659;SDS011;33403;43.608;1.458;2022-08-03T08:07:31;4.47;;;2.60;;
47659;SDS011;33403;43.608;1.458;2022-08-03T08:09:57;4.22;;;2.95;;
47659;SDS011;33403;43.608;1.458;2022-08-03T08:12:23;3.92;;;2.53;;
47659;SDS011;33403;43.608;1.458;2022-08-03T08:14:49;3.92;;;2.72;;
47659;SDS011;33403;43.608;1.458;2022-08-03T08:17:15;3.17;;;2.35;;
47659;SDS011;33403;43.608;1.458;2022-08-03T08:19:41;3.67;;;2.90;;
47659;SDS011;33403;43.608;1.458;2022-08-03T08:22:07;4.25;;;2.60;;
47659;SDS011;33403;43.608;1.458;2022-08-03T08:24:33;4.15;;;2.80;;
47659;SDS011;33403;43.608;1.458;2022-08-03T08:26:59;3.15;;;2.83;;
47659;SDS011;33403;43.608;1.458;2022-08-03T08:29:25;5.10;;;2.90;;
47659;SDS011;33403;43.608;1.458;2022-08-03T08:31:51;4.47;;;2.95;;
47659;SDS011;33403;43.608;1.458;2022-08-03T08:34:17;3.70;;;2.90;;
47659;SDS011;33403;43.608;1.458;2022-08-03T08:36:43;4.50;;;2.80;;
47659;SDS011;33403;43.608;1.458;2022-08-03T08:39:09;5.25;;;3.05;;
47659;SDS011;33403;43.608;1.458;2022-08-03T08:41:36;5.90;;;2.65;;
47659;SDS011;33403;43.608;1.458;2022-08-03T08:44:02;4.47;;;3.00;;
47659;SDS011;33403;43.608;1.458;2022-08-03T08:46:29;3.72;;;2.90;;
47659;SDS011;33403;43.608;1.458;2022-08-03T08:48:56;3.97;;;2.78;;
47659;SDS011;33403;43.608;1.458;2022-08-03T08:51:26;4.88;;;3.28;;
47659;SDS011;33403;43.608;1.458;2022-08-03T08:53:52;3.10;;;2.80;;
47659;SDS011;33403;43.608;1.458;2022-08-03T08:56:19;3.22;;;2.92;;
47659;SDS011;33403;43.608;1.458;2022-08-03T08:58:53;3.78;;;2.90;;
47659;SDS011;33403;43.608;1.458;2022-08-03T09:01:21;4.38;;;2.90;;
47659;SDS011;33403;43.608;1.458;2022-08-03T09:03:47;3.47;;;2.70;;
47659;SDS011;33403;43.608;1.458;2022-08-03T09:06:13;4.88;;;3.03;;
47659;SDS011;33403;43.608;1.458;2022-08-03T09:08:39;3.55;;;2.95;;
47659;SDS011;33403;43.608;1.458;2022-08-03T09:11:05;3.67;;;3.00;;
47659;SDS011;33403;43.608;1.458;2022-08-03T09:13:32;4.00;;;2.90;;
47659;SDS011;33403;43.608;1.458;2022-08-03T09:18:33;5.35;;;2.95;;
47659;SDS011;33403;43.608;1.458;2022-08-03T09:23:58;2.83;;;2.60;;
47659;SDS011;33403;43.608;1.458;2022-08-03T09:26:25;3.67;;;3.08;;
47659;SDS011;33403;43.608;1.458;2022-08-03T09:28:59;4.10;;;2.95;;
47659;SDS011;33403;43.608;1.458;2022-08-03T09:31:39;3.50;;;2.90;;
47659;SDS011;33403;43.608;1.458;2022-08-03T09:34:10;3.67;;;2.90;;
47659;SDS011;33403;43.608;1.458;2022-08-03T09:36:37;4.07;;;3.10;;
47659;SDS011;33403;43.608;1.458;2022-08-03T09:39:07;6.25;;;3.10;;
47659;SDS011;33403;43.608;1.458;2022-08-03T09:41:35;3.45;;;3.00;;
47659;SDS011;33403;43.608;1.458;2022-08-03T09:44:01;6.10;;;3.08;;
47659;SDS011;33403;43.608;1.458;2022-08-03T09:46:27;3.10;;;2.80;;
47659;SDS011;33403;43.608;1.458;2022-08-03T09:49:11;4.28;;;2.88;;
47659;SDS011;33403;43.608;1.458;2022-08-03T09:51:38;2.90;;;2.42;;
47659;SDS011;33403;43.608;1.458;2022-08-03T09:54:04;3.83;;;2.80;;
47659;SDS011;33403;43.608;1.458;2022-08-03T09:56:43;4.03;;;2.80;;
47659;SDS011;33403;43.608;1.458;2022-08-03T09:59:10;3.50;;;2.88;;
47659;SDS011;33403;43.608;1.458;2022-08-03T10:01:36;4.05;;;2.60;;
47659;SDS011;33403;43.608;1.458;2022-08-03T10:04:05;2.80;;;2.53;;
47659;SDS011;33403;43.608;1.458;2022-08-03T10:06:36;3.08;;;2.45;;
47659;SDS011;33403;43.608;1.458;2022-08-03T10:09:12;2.70;;;2.38;;
47659;SDS011;33403;43.608;1.458;2022-08-03T10:11:39;3.75;;;2.10;;
47659;SDS011;33403;43.608;1.458;2022-08-03T10:14:06;3.38;;;2.40;;
47659;SDS011;33403;43.608;1.458;2022-08-03T10:16:41;3.00;;;2.40;;
47659;SDS011;33403;43.608;1.458;2022-08-03T10:19:07;2.50;;;2.30;;
47659;SDS011;33403;43.608;1.458;2022-08-03T10:21:35;2.60;;;2.40;;
47659;SDS011;33403;43.608;1.458;2022-08-03T10:24:03;2.70;;;2.45;;
47659;SDS011;33403;43.608;1.458;2022-08-03T10:26:30;2.63;;;2.33;;
47659;SDS011;33403;43.608;1.458;2022-08-03T10:28:57;2.83;;;2.10;;
47659;SDS011;33403;43.608;1.458;2022-08-03T10:31:24;3.33;;;2.13;;
47659;SDS011;33403;43.608;1.458;2022-08-03T10:33:51;2.47;;;2.13;;
47659;SDS011;33403;43.608;1.458;2022-08-03T10:36:22;2.90;;;2.30;;
47659;SDS011;33403;43.608;1.458;2022-08-03T10:38:49;2.97;;;2.10;;
47659;SDS011;33403;43.608;1.458;2022-08-03T10:41:20;2.63;;;2.08;;
47659;SDS011;33403;43.608;1.458;2022-08-03T10:44:06;2.63;;;2.20;;
47659;SDS011;33403;43.608;1.458;2022-08-03T10:46:34;2.20;;;2.00;;
47659;SDS011;33403;43.608;1.458;2022-08-03T10:49:01;2.45;;;2.20;;
47659;SDS011;33403;43.608;1.458;2022-08-03T10:51:27;2.25;;;2.05;;
47659;SDS011;33403;43.608;1.458;2022-08-03T10:53:57;3.03;;;2.00;;
47659;SDS011;33403;43.608;1.458;2022-08-03T10:59:17;2.50;;;2.30;;
47659;SDS011;33403;43.608;1.458;2022-08-03T11:01:55;4.03;;;2.22;;
47659;SDS011;33403;43.608;1.458;2022-08-03T11:04:22;2.47;;;2.00;;
47659;SDS011;33403;43.608;1.458;2022-08-03T11:09:43;2.65;;;2.20;;
47659;SDS011;33403;43.608;1.458;2022-08-03T11:14:46;3.80;;;2.20;;
47659;SDS011;33403;43.608;1.458;2022-08-03T11:17:12;2.47;;;2.28;;
47659;SDS011;33403;43.608;1.458;2022-08-03T11:19:45;2.30;;;2.10;;
47659;SDS011;33403;43.608;1.458;2022-08-03T11:22:12;2.55;;;2.30;;
47659;SDS011;33403;43.608;1.458;2022-08-03T11:35:08;2.70;;;2.50;;
47659;SDS011;33403;43.608;1.458;2022-08-03T11:37:34;4.60;;;2.70;;
47659;SDS011;33403;43.608;1.458;2022-08-03T11:40:01;2.67;;;2.35;;
47659;SDS011;33403;43.608;1.458;2022-08-03T11:44:53;2.85;;;2.20;;
47659;SDS011;33403;43.608;1.458;2022-08-03T11:47:21;2.40;;;2.20;;
47659;SDS011;33403;43.608;1.458;2022-08-03T11:49:48;2.97;;;2.40;;
47659;SDS011;33403;43.608;1.458;2022-08-03T11:52:17;2.58;;;2.30;;
47659;SDS011;33403;43.608;1.458;2022-08-03T11:54:43;2.95;;;2.15;;
47659;SDS011;33403;43.608;1.458;2022-08-03T11:57:10;2.45;;;2.25;;
47659;SDS011;33403;43.608;1.458;2022-08-03T11:59:36;6.35;;;2.42;;
47659;SDS011;33403;43.608;1.458;2022-08-03T12:02:06;2.40;;;2.20;;
47659;SDS011;33403;43.608;1.458;2022-08-03T12:04:54;3.63;;;2.35;;
47659;SDS011;33403;43.608;1.458;2022-08-03T12:07:18;2.30;;;2.10;;
47659;SDS011;33403;43.608;1.458;2022-08-03T12:12:59;2.25;;;1.90;;
47659;SDS011;33403;43.608;1.458;2022-08-03T12:15:29;3.45;;;2.25;;
47659;SDS011;33403;43.608;1.458;2022-08-03T12:17:57;4.35;;;2.50;;
47659;SDS011;33403;43.608;1.458;2022-08-03T12:20:24;2.35;;;2.10;;
47659;SDS011;33403;43.608;1.458;2022-08-03T12:22:51;2.83;;;2.10;;
47659;SDS011;33403;43.608;1.458;2022-08-03T12:25:21;2.63;;;2.03;;
47659;SDS011;33403;43.608;1.458;2022-08-03T12:27:48;2.40;;;2.20;;
47659;SDS011;33403;43.608;1.458;2022-08-03T12:30:14;2.33;;;2.13;;
47659;SDS011;33403;43.608;1.458;2022-08-03T12:32:41;2.97;;;2.10;;
47659;SDS011;33403;43.608;1.458;2022-08-03T12:35:07;3.85;;;2.00;;
47659;SDS011;33403;43.608;1.458;2022-08-03T12:37:34;2.40;;;2.20;;
47659;SDS011;33403;43.608;1.458;2022-08-03T12:40:00;3.05;;;2.10;;
47659;SDS011;33403;43.608;1.458;2022-08-03T12:42:32;2.28;;;1.90;;
47659;SDS011;33403;43.608;1.458;2022-08-03T12:44:58;4.07;;;1.98;;
47659;SDS011;33403;43.608;1.458;2022-08-03T12:47:24;2.10;;;1.90;;
47659;SDS011;33403;43.608;1.458;2022-08-03T12:49:51;3.35;;;1.90;;
47659;SDS011;33403;43.608;1.458;2022-08-03T12:52:18;2.10;;;1.88;;
47659;SDS011;33403;43.608;1.458;2022-08-03T12:54:54;2.10;;;1.90;;
47659;SDS011;33403;43.608;1.458;2022-08-03T12:57:20;2.95;;;1.90;;
47659;SDS011;33403;43.608;1.458;2022-08-03T12:59:46;2.42;;;1.83;;
47659;SDS011;33403;43.608;1.458;2022-08-03T13:02:19;2.15;;;1.95;;
47659;SDS011;33403;43.608;1.458;2022-08-03T13:04:46;2.10;;;1.90;;
47659;SDS011;33403;43.608;1.458;2022-08-03T13:07:13;1.95;;;1.75;;
47659;SDS011;33403;43.608;1.458;2022-08-03T13:09:46;2.47;;;1.80;;
47659;SDS011;33403;43.608;1.458;2022-08-03T13:12:15;2.05;;;1.73;;
47659;SDS011;33403;43.608;1.458;2022-08-03T13:14:42;4.55;;;2.00;;
47659;SDS011;33403;43.608;1.458;2022-08-03T13:17:08;2.83;;;2.00;;
47659;SDS011;33403;43.608;1.458;2022-08-03T13:19:35;2.58;;;2.00;;
47659;SDS011;33403;43.608;1.458;2022-08-03T13:22:15;2.20;;;2.00;;
47659;SDS011;33403;43.608;1.458;2022-08-03T13:24:42;1.80;;;1.70;;
47659;SDS011;33403;43.608;1.458;2022-08-03T13:27:08;2.47;;;1.58;;
47659;SDS011;33403;43.608;1.458;2022-08-03T13:29:34;1.95;;;1.45;;
47659;SDS011;33403;43.608;1.458;2022-08-03T13:32:01;2.88;;;1.88;;
47659;SDS011;33403;43.608;1.458;2022-08-03T13:34:27;2.17;;;1.80;;
47659;SDS011;33403;43.608;1.458;2022-08-03T13:36:53;2.40;;;2.20;;
47659;SDS011;33403;43.608;1.458;2022-08-03T13:39:19;2.30;;;2.10;;
47659;SDS011;33403;43.608;1.458;2022-08-03T13:41:45;2.70;;;2.00;;
47659;SDS011;33403;43.608;1.458;2022-08-03T13:44:12;3.75;;;2.13;;
47659;SDS011;33403;43.608;1.458;2022-08-03T13:46:38;2.50;;;2.30;;
47659;SDS011;33403;43.608;1.458;2022-08-03T13:49:04;5.28;;;2.35;;
47659;SDS011;33403;43.608;1.458;2022-08-03T13:51:30;2.30;;;2.10;;
47659;SDS011;33403;43.608;1.458;2022-08-03T13:53:56;2.58;;;2.38;;
47659;SDS011;33403;43.608;1.458;2022-08-03T13:56:24;2.63;;;2.40;;
47659;SDS011;33403;43.608;1.458;2022-08-03T13:58:50;2.30;;;2.10;;
47659;SDS011;33403;43.608;1.458;2022-08-03T14:01:16;2.38;;;2.17;;
47659;SDS011;33403;43.608;1.458;2022-08-03T14:03:42;2.95;;;2.35;;
47659;SDS011;33403;43.608;1.458;2022-08-03T14:06:08;3.78;;;2.40;;
47659;SDS011;33403;43.608;1.458;2022-08-03T14:08:34;2.30;;;2.00;;
47659;SDS011;33403;43.608;1.458;2022-08-03T14:11:00;3.08;;;2.40;;
47659;SDS011;33403;43.608;1.458;2022-08-03T14:13:26;3.05;;;2.20;;
47659;SDS011;33403;43.608;1.458;2022-08-03T14:15:52;3.15;;;2.50;;
47659;SDS011;33403;43.608;1.458;2022-08-03T14:18:19;2.30;;;2.10;;
47659;SDS011;33403;43.608;1.458;2022-08-03T14:20:46;2.05;;;1.92;;
47659;SDS011;33403;43.608;1.458;2022-08-03T14:23:12;2.75;;;2.00;;
47659;SDS011;33403;43.608;1.458;2022-08-03T14:25:39;2.42;;;2.22;;
47659;SDS011;33403;43.608;1.458;2022-08-03T14:28:08;2.40;;;2.20;;
47659;SDS011;33403;43.608;1.458;2022-08-03T14:30:34;2.95;;;2.60;;
47659;SDS011;33403;43.608;1.458;2022-08-03T14:33:00;3.30;;;2.35;;
47659;SDS011;33403;43.608;1.458;2022-08-03T14:35:26;2.40;;;2.20;;
47659;SDS011;33403;43.608;1.458;2022-08-03T14:37:52;3.58;;;2.28;;
47659;SDS011;33403;43.608;1.458;2022-08-03T14:40:19;2.53;;;2.10;;
47659;SDS011;33403;43.608;1.458;2022-08-03T14:42:45;2.63;;;2.15;;
47659;SDS011;33403;43.608;1.458;2022-08-03T14:45:11;2.13;;;1.92;;
47659;SDS011;33403;43.608;1.458;2022-08-03T14:47:40;2.75;;;2.50;;
47659;SDS011;33403;43.608;1.458;2022-08-03T14:50:06;3.28;;;2.28;;
47659;SDS011;33403;43.608;1.458;2022-08-03T14:52:33;2.95;;;2.30;;
47659;SDS011;33403;43.608;1.458;2022-08-03T14:54:59;2.30;;;2.10;;
47659;SDS011;33403;43.608;1.458;2022-08-03T14:57:26;2.50;;;2.30;;
47659;SDS011;33403;43.608;1.458;2022-08-03T14:59:52;2.88;;;2.20;;
47659;SDS011;33403;43.608;1.458;2022-08-03T15:02:18;2.65;;;2.45;;
47659;SDS011;33403;43.608;1.458;2022-08-03T15:04:44;4.93;;;2.10;;
47659;SDS011;33403;43.608;1.458;2022-08-03T15:07:10;1.80;;;1.70;;
47659;SDS011;33403;43.608;1.458;2022-08-03T15:09:36;2.30;;;2.10;;
47659;SDS011;33403;43.608;1.458;2022-08-03T15:12:03;2.00;;;1.90;;
47659;SDS011;33403;43.608;1.458;2022-08-03T15:14:29;2.25;;;2.08;;
47659;SDS011;33403;43.608;1.458;2022-08-03T15:16:55;2.03;;;1.92;;
47659;SDS011;33403;43.608;1.458;2022-08-03T15:19:21;4.32;;;2.30;;
47659;SDS011;33403;43.608;1.458;2022-08-03T15:21:47;3.65;;;2.50;;
47659;SDS011;33403;43.608;1.458;2022-08-03T15:24:13;2.58;;;2.30;;
47659;SDS011;33403;43.608;1.458;2022-08-03T15:26:40;2.20;;;2.00;;
47659;SDS011;33403;43.608;1.458;2022-08-03T15:29:06;2.60;;;2.40;;
47659;SDS011;33403;43.608;1.458;2022-08-03T15:31:32;2.22;;;2.00;;
47659;SDS011;33403;43.608;1.458;2022-08-03T15:33:58;1.85;;;1.75;;
47659;SDS011;33403;43.608;1.458;2022-08-03T15:36:24;2.40;;;2.20;;
47659;SDS011;33403;43.608;1.458;2022-08-03T15:38:51;2.50;;;2.20;;
47659;SDS011;33403;43.608;1.458;2022-08-03T15:41:17;3.38;;;2.60;;
47659;SDS011;33403;43.608;1.458;2022-08-03T15:43:43;2.05;;;1.95;;